Metar z połowy godziny Komunikat METAR ze strony awiacja.imgw.pl Metar Mil EPIR METAR EPIR 261130Z 28016KT 9999 SCT014 OVC016 01/M02 Q1007 RMK 005 084 8/3=